createdAt,value
2018-02-10T00:00:54.728Z,20.20
2018-02-10T00:02:57.404Z,20.67
2018-02-10T00:05:00.938Z,20.03
2018-02-10T00:07:03.593Z,20.90
2018-02-10T00:09:06.368Z,21.37
2018-02-10T00:11:09.025Z,21.37
2018-02-10T00:13:12.462Z,21.43
2018-02-10T00:15:15.123Z,22.07
2018-02-10T00:17:17.771Z,21.20
2018-02-10T00:19:21.217Z,21.37
2018-02-10T00:21:23.862Z,18.80
2018-02-10T00:23:26.523Z,21.73
2018-02-10T00:25:29.202Z,22.40
2018-02-10T00:27:31.840Z,21.27
2018-02-10T00:29:34.791Z,23.57
2018-02-10T00:31:38.234Z,24.00
2018-02-10T00:33:41.633Z,23.93
2018-02-10T00:35:46.849Z,23.17
2018-02-10T00:37:49.579Z,23.50
2018-02-10T00:39:52.264Z,24.67
2018-02-10T00:41:56.395Z,24.57
2018-02-10T00:43:59.075Z,22.70
2018-02-10T00:46:01.854Z,24.67
2018-02-10T00:48:04.707Z,24.13
2018-02-10T00:50:07.555Z,23.53
2018-02-10T00:52:10.960Z,23.20
2018-02-10T00:54:13.976Z,24.70
2018-02-10T00:56:16.641Z,24.63
2018-02-10T00:58:19.316Z,24.37
2018-02-10T01:00:21.954Z,24.40
2018-02-10T01:02:27.672Z,24.03
2018-02-10T01:04:31.094Z,23.67
2018-02-10T01:06:34.504Z,24.67
2018-02-10T01:08:37.174Z,23.43
2018-02-10T01:10:39.835Z,24.37
2018-02-10T01:12:43.247Z,23.93
2018-02-10T01:14:45.912Z,25.77
2018-02-10T01:16:49.426Z,24.73
2018-02-10T01:18:52.283Z,23.53
2018-02-10T01:20:56.461Z,25.23
2018-02-10T01:22:59.117Z,23.90
2018-02-10T01:25:01.761Z,23.63
2018-02-10T01:27:04.440Z,24.77
2018-02-10T01:29:07.106Z,25.37
2018-02-10T01:31:09.774Z,25.13
2018-02-10T01:33:13.213Z,24.33
2018-02-10T01:35:16.092Z,27.03
2018-02-10T01:37:18.779Z,25.57
2018-02-10T01:39:21.470Z,25.67
2018-02-10T01:41:24.203Z,26.37
2018-02-10T01:43:26.841Z,26.60
2018-02-10T01:45:29.832Z,26.17
2018-02-10T01:47:33.531Z,25.70
2018-02-10T01:49:37.198Z,26.10
2018-02-10T01:51:39.993Z,26.57
2018-02-10T01:53:42.633Z,26.33
2018-02-10T01:55:45.294Z,25.90
2018-02-10T01:57:47.951Z,25.57
2018-02-10T01:59:52.276Z,27.33
2018-02-10T02:01:54.944Z,25.77
2018-02-10T02:03:57.607Z,28.20
2018-02-10T02:06:01.034Z,26.50
2018-02-10T02:08:03.812Z,27.70
2018-02-10T02:10:06.491Z,27.77
2018-02-10T02:12:09.188Z,27.00
2018-02-10T02:14:11.925Z,27.40
2018-02-10T02:16:14.558Z,28.60
2018-02-10T02:18:17.223Z,28.93
2018-02-10T02:20:19.874Z,27.70
2018-02-10T02:22:22.530Z,29.80
2018-02-10T02:24:25.211Z,28.70
2018-02-10T02:26:27.855Z,30.40
2018-02-10T02:28:30.537Z,30.60
2018-02-10T02:30:33.987Z,32.50
2018-02-10T02:32:36.641Z,34.83
2018-02-10T02:34:39.302Z,32.13
2018-02-10T02:36:41.983Z,35.57
2018-02-10T02:38:44.649Z,34.13
2018-02-10T02:40:47.291Z,33.77
2018-02-10T02:42:49.988Z,34.50
2018-02-10T02:44:53.391Z,33.90
2018-02-10T02:46:56.810Z,34.37
2018-02-10T02:48:59.490Z,34.90
2018-02-10T02:51:02.153Z,33.43
2018-02-10T02:53:04.798Z,36.00
2018-02-10T02:55:08.251Z,33.67
2018-02-10T02:57:10.903Z,36.17
2018-02-10T02:59:13.550Z,34.60
2018-02-10T03:01:17.010Z,34.90
2018-02-10T03:03:19.653Z,35.40
2018-02-10T03:05:22.291Z,35.53
2018-02-10T03:07:25.720Z,33.73
2018-02-10T03:09:28.354Z,31.27
2018-02-10T03:11:31.006Z,34.67
2018-02-10T03:13:33.682Z,32.40
2018-02-10T03:15:36.338Z,33.70
2018-02-10T03:17:38.989Z,35.00
2018-02-10T03:19:41.697Z,35.70
2018-02-10T03:21:44.343Z,35.33
2018-02-10T03:23:47.072Z,35.10
2018-02-10T03:25:49.728Z,33.97
2018-02-10T03:27:53.124Z,33.90
2018-02-10T03:29:55.779Z,32.47
2018-02-10T03:31:58.476Z,34.63
2018-02-10T03:34:01.141Z,36.70
2018-02-10T03:36:03.800Z,35.50
2018-02-10T03:38:06.477Z,35.67
2018-02-10T03:40:09.201Z,38.10
2018-02-10T03:42:11.891Z,36.10
2018-02-10T03:44:15.340Z,37.90
2018-02-10T03:46:17.975Z,35.73
2018-02-10T03:48:21.413Z,37.53
2018-02-10T03:50:24.087Z,38.13
2018-02-10T03:52:26.761Z,37.93
2018-02-10T03:54:29.498Z,37.37
2018-02-10T03:56:32.928Z,37.60
2018-02-10T03:58:35.610Z,35.03
2018-02-10T04:00:38.266Z,35.73
2018-02-10T04:02:40.936Z,35.43
2018-02-10T04:04:43.620Z,34.93
2018-02-10T04:06:46.268Z,35.53
2018-02-10T04:08:49.694Z,37.00
2018-02-10T04:10:52.354Z,36.47
2018-02-10T04:12:55.017Z,34.50
2018-02-10T04:14:58.482Z,36.77
2018-02-10T04:17:01.116Z,35.83
2018-02-10T04:19:03.758Z,35.60
2018-02-10T04:21:06.441Z,35.80
2018-02-10T04:23:09.831Z,36.50
2018-02-10T04:25:13.259Z,37.03
2018-02-10T04:27:15.911Z,37.63
2018-02-10T04:29:18.552Z,38.50
2018-02-10T04:31:21.237Z,37.30
2018-02-10T04:33:24.764Z,37.97
2018-02-10T04:35:27.407Z,39.20
2018-02-10T04:37:30.079Z,35.90
2018-02-10T04:39:32.735Z,36.47
2018-02-10T04:41:35.384Z,37.70
2018-02-10T04:43:38.095Z,36.70
2018-02-10T04:45:40.760Z,32.70
2018-02-10T04:47:43.413Z,35.60
2018-02-10T04:49:46.076Z,34.30
2018-02-10T04:51:48.722Z,34.70
2018-02-10T04:53:52.137Z,35.67
2018-02-10T04:55:54.818Z,32.80
2018-02-10T04:57:57.451Z,33.50
2018-02-10T05:00:00.096Z,28.20
2018-02-10T05:02:02.771Z,30.10
2018-02-10T05:04:05.428Z,30.73
2018-02-10T05:06:08.081Z,28.97
2018-02-10T05:08:10.743Z,30.27
2018-02-10T05:10:14.160Z,27.47
2018-02-10T05:12:16.812Z,28.37
2018-02-10T05:14:20.255Z,28.37
2018-02-10T05:16:23.740Z,32.03
2018-02-10T05:18:26.394Z,31.23
2018-02-10T05:20:29.068Z,29.17
2018-02-10T05:22:31.728Z,30.97
2018-02-10T05:24:35.132Z,29.63
2018-02-10T05:26:38.554Z,30.50
2018-02-10T05:28:41.200Z,31.10
2018-02-10T05:30:44.621Z,30.10
2018-02-10T05:32:47.280Z,28.30
2018-02-10T05:34:49.935Z,29.73
2018-02-10T05:36:53.359Z,29.80
2018-02-10T05:38:56.075Z,28.40
2018-02-10T05:40:58.715Z,28.67
2018-02-10T05:43:01.394Z,30.93
2018-02-10T05:45:04.058Z,29.00
2018-02-10T05:47:06.753Z,27.47
2018-02-10T05:49:09.401Z,26.93
2018-02-10T05:51:12.062Z,27.27
2018-02-10T05:53:15.525Z,25.03
2018-02-10T05:55:18.287Z,27.50
2018-02-10T05:57:20.931Z,25.80
2018-02-10T05:59:23.604Z,24.57
2018-02-10T06:01:26.258Z,24.20
2018-02-10T06:03:29.992Z,26.33
2018-02-10T06:05:32.678Z,26.63
2018-02-10T06:07:35.427Z,25.50
2018-02-10T06:09:38.851Z,23.47
2018-02-10T06:11:42.556Z,26.40
2018-02-10T06:13:45.194Z,26.07
2018-02-10T06:15:48.614Z,25.30
2018-02-10T06:17:51.283Z,23.60
2018-02-10T06:19:53.932Z,26.10
2018-02-10T06:21:57.354Z,24.90
2018-02-10T06:24:00.026Z,27.03
2018-02-10T06:26:02.696Z,28.10
2018-02-10T06:28:05.353Z,26.20
2018-02-10T06:30:08.799Z,25.57
2018-02-10T06:32:11.452Z,27.60
2018-02-10T06:34:14.086Z,28.43
2018-02-10T06:36:16.741Z,27.07
2018-02-10T06:38:21.263Z,26.07
2018-02-10T06:40:23.914Z,26.87
2018-02-10T06:42:26.583Z,26.90
2018-02-10T06:44:29.232Z,26.90
2018-02-10T06:46:32.754Z,28.47
2018-02-10T06:48:35.431Z,29.27
2018-02-10T06:50:38.072Z,26.90
2018-02-10T06:52:41.499Z,28.47
2018-02-10T06:54:44.156Z,27.83
2018-02-10T06:56:46.873Z,28.90
2018-02-10T06:58:49.551Z,28.17
2018-02-10T07:00:52.240Z,26.50
2018-02-10T07:02:54.873Z,27.73
2018-02-10T07:04:57.547Z,26.23
2018-02-10T07:07:00.189Z,28.07
2018-02-10T07:09:03.672Z,28.60
2018-02-10T07:11:06.340Z,27.87
2018-02-10T07:13:09.100Z,27.47
2018-02-10T07:15:11.741Z,28.83
2018-02-10T07:17:14.440Z,31.00
2018-02-10T07:19:17.077Z,29.33
2018-02-10T07:21:20.494Z,28.63
2018-02-10T07:23:23.167Z,31.10
2018-02-10T07:25:25.821Z,28.87
2018-02-10T07:27:29.350Z,29.37
2018-02-10T07:29:32.020Z,30.20
2018-02-10T07:31:34.678Z,30.37
2018-02-10T07:33:37.324Z,30.23
2018-02-10T07:35:39.989Z,27.90
2018-02-10T07:37:42.641Z,28.43
2018-02-10T07:39:45.276Z,28.70
2018-02-10T07:41:48.720Z,28.90
2018-02-10T07:43:51.365Z,29.57
2018-02-10T07:45:54.014Z,30.60
2018-02-10T07:47:57.453Z,32.40
2018-02-10T07:50:00.131Z,30.20
2018-02-10T07:52:02.820Z,30.63
2018-02-10T07:54:05.484Z,31.23
2018-02-10T07:56:08.139Z,29.80
2018-02-10T07:58:10.825Z,30.10
2018-02-10T08:00:13.493Z,29.37
2018-02-10T08:02:16.136Z,30.73
2018-02-10T08:04:19.539Z,28.10
2018-02-10T08:06:23.396Z,30.57
2018-02-10T08:08:26.051Z,29.03
2018-02-10T08:10:28.701Z,29.03
2018-02-10T08:12:31.372Z,29.53
2018-02-10T08:14:34.796Z,28.97
2018-02-10T08:16:37.454Z,31.83
2018-02-10T08:18:40.117Z,30.30
2018-02-10T08:20:42.780Z,31.03
2018-02-10T08:22:46.230Z,31.70
2018-02-10T08:24:48.911Z,30.30
2018-02-10T08:26:51.569Z,29.80
2018-02-10T08:28:54.232Z,31.97
2018-02-10T08:30:56.915Z,29.80
2018-02-10T08:32:59.576Z,29.23
2018-02-10T08:35:02.235Z,28.90
2018-02-10T08:37:05.665Z,31.60
2018-02-10T08:39:08.305Z,30.23
2018-02-10T08:41:11.713Z,30.90
2018-02-10T08:43:14.377Z,31.63
2018-02-10T08:45:17.791Z,30.10
2018-02-10T08:47:20.577Z,30.77
2018-02-10T08:49:23.244Z,32.40
2018-02-10T08:51:25.885Z,33.20
2018-02-10T08:53:28.528Z,32.07
2018-02-10T08:55:31.576Z,30.10
2018-02-10T08:57:34.228Z,29.30
2018-02-10T08:59:37.626Z,31.10
2018-02-10T09:01:41.074Z,30.80
2018-02-10T09:03:43.740Z,33.00
2018-02-10T09:05:46.395Z,32.20
2018-02-10T09:07:49.833Z,32.90
2018-02-10T09:09:52.572Z,35.60
2018-02-10T09:11:55.231Z,33.17
2018-02-10T09:13:57.915Z,34.13
2018-02-10T09:16:01.506Z,32.43
2018-02-10T09:18:04.176Z,32.53
2018-02-10T09:20:09.151Z,33.43
2018-02-10T09:22:12.205Z,32.70
2018-02-10T09:24:14.869Z,36.40
2018-02-10T09:26:18.878Z,36.90
2018-02-10T09:28:21.544Z,34.73
2018-02-10T09:30:24.958Z,33.37
2018-02-10T09:32:27.616Z,34.00
2018-02-10T09:34:31.062Z,33.17
2018-02-10T09:36:33.727Z,34.30
2018-02-10T09:38:36.361Z,32.93
2018-02-10T09:40:39.826Z,34.50
2018-02-10T09:42:42.468Z,35.17
2018-02-10T09:44:46.329Z,33.97
2018-02-10T09:46:49.768Z,34.03
2018-02-10T09:48:52.422Z,35.27
2018-02-10T09:50:55.082Z,33.50
2018-02-10T09:52:58.820Z,33.40
2018-02-10T09:55:02.743Z,32.80
2018-02-10T09:57:05.395Z,30.90
2018-02-10T09:59:08.114Z,34.00
2018-02-10T10:01:10.776Z,34.60
2018-02-10T10:03:13.480Z,33.60
2018-02-10T10:05:16.136Z,33.40
2018-02-10T10:07:19.160Z,33.40
2018-02-10T10:09:21.814Z,37.37
2018-02-10T10:11:24.504Z,43.00
2018-02-10T10:13:27.935Z,37.30
2018-02-10T10:15:30.619Z,32.37
2018-02-10T10:17:33.338Z,36.60
2018-02-10T10:19:36.047Z,35.37
2018-02-10T10:21:38.824Z,34.17
2018-02-10T10:23:41.791Z,34.93
2018-02-10T10:25:45.196Z,33.77
2018-02-10T10:27:47.900Z,32.73
2018-02-10T10:29:50.568Z,33.00
2018-02-10T10:31:53.345Z,32.63
2018-02-10T10:33:56.060Z,32.40
2018-02-10T10:35:58.778Z,30.90
2018-02-10T10:38:02.206Z,32.20
2018-02-10T10:40:04.880Z,32.33
2018-02-10T10:42:07.574Z,31.97
2018-02-10T10:44:10.223Z,33.43
2018-02-10T10:46:12.899Z,32.87
2018-02-10T10:48:15.661Z,33.17
2018-02-10T10:50:20.121Z,31.80
2018-02-10T10:52:23.628Z,29.60
2018-02-10T10:54:26.374Z,30.27
2018-02-10T10:56:29.101Z,29.67
2018-02-10T10:58:31.760Z,30.70
2018-02-10T11:00:34.406Z,31.87
2018-02-10T11:02:37.099Z,32.03
2018-02-10T11:04:39.763Z,31.57
2018-02-10T11:06:42.419Z,29.50
2018-02-10T11:08:45.090Z,50.87
2018-02-10T11:10:47.759Z,47.17
2018-02-10T11:12:50.408Z,43.47
2018-02-10T11:14:53.094Z,50.60
2018-02-10T11:16:56.551Z,56.03
2018-02-10T11:18:59.244Z,48.60
2018-02-10T11:21:01.914Z,42.20
2018-02-10T11:23:04.570Z,37.20
2018-02-10T11:25:07.294Z,29.90
2018-02-10T11:27:10.755Z,33.60
2018-02-10T11:29:13.406Z,30.33
2018-02-10T11:31:16.074Z,25.33
2018-02-10T11:33:18.749Z,31.10
2018-02-10T11:35:21.394Z,31.50
2018-02-10T11:37:24.821Z,35.10
2018-02-10T11:39:27.486Z,28.17
2018-02-10T11:41:30.155Z,27.10
2018-02-10T11:43:32.824Z,24.80
2018-02-10T11:45:36.366Z,28.90
2018-02-10T11:47:39.091Z,25.73
2018-02-10T11:49:41.791Z,24.40
2018-02-10T11:51:44.442Z,22.53
2018-02-10T11:53:47.889Z,23.43
2018-02-10T11:55:50.617Z,22.53
2018-02-10T11:57:54.047Z,22.87
2018-02-10T11:59:56.692Z,21.87
2018-02-10T12:02:00.166Z,23.80
2018-02-10T12:04:02.817Z,23.57
2018-02-10T12:06:05.452Z,24.13
2018-02-10T12:08:08.113Z,23.90
2018-02-10T12:10:11.671Z,22.50
2018-02-10T12:12:14.312Z,29.50
2018-02-10T12:14:16.979Z,35.30
2018-02-10T12:16:19.672Z,28.97
2018-02-10T12:18:23.028Z,29.07
2018-02-10T12:20:26.478Z,26.83
2018-02-10T12:22:29.117Z,26.23
2018-02-10T12:24:31.910Z,22.77
2018-02-10T12:26:34.985Z,19.60
2018-02-10T12:28:37.697Z,21.83
2018-02-10T12:30:40.410Z,21.97
2018-02-10T12:32:43.859Z,21.63
2018-02-10T12:34:46.495Z,20.20
2018-02-10T12:36:49.150Z,20.10
2018-02-10T12:38:52.611Z,20.37
2018-02-10T12:40:56.030Z,20.17
2018-02-10T12:42:58.702Z,21.23
2018-02-10T12:45:01.444Z,20.40
2018-02-10T12:47:04.139Z,21.20
2018-02-10T12:51:39.526Z,20.87
2018-02-10T12:53:42.934Z,21.20
2018-02-10T12:55:46.366Z,22.17
2018-02-10T12:57:49.051Z,21.60
2018-02-10T12:59:51.684Z,20.70
2018-02-10T13:01:54.424Z,22.17
2018-02-10T13:03:57.120Z,24.73
2018-02-10T13:06:00.560Z,25.63
2018-02-10T13:08:03.356Z,26.10
2018-02-10T13:10:06.025Z,48.43
2018-02-10T13:12:08.730Z,44.70
2018-02-10T13:14:11.378Z,32.90
2018-02-10T13:16:14.235Z,43.97
2018-02-10T13:18:16.910Z,34.80
2018-02-10T13:20:19.571Z,34.90
2018-02-10T13:22:22.222Z,35.37
2018-02-10T13:24:24.877Z,29.90
2018-02-10T13:26:27.566Z,26.43
2018-02-10T13:28:31.639Z,23.53
2018-02-10T13:30:34.283Z,23.43
2018-02-10T13:32:36.961Z,23.17
2018-02-10T13:34:39.697Z,23.40
2018-02-10T13:36:42.666Z,45.40
2018-02-10T13:38:45.354Z,38.60
2018-02-10T13:40:48.039Z,26.83
2018-02-10T13:42:50.714Z,22.43
2018-02-10T13:44:53.741Z,20.10
2018-02-10T13:46:56.435Z,20.07
2018-02-10T13:48:59.555Z,20.17
2018-02-10T13:51:03.170Z,18.80
2018-02-10T13:53:05.826Z,19.60
2018-02-10T13:55:08.510Z,19.60
2018-02-10T13:57:11.176Z,20.00
2018-02-10T13:59:13.837Z,16.87
2018-02-10T14:01:16.496Z,15.20
2018-02-10T14:03:19.362Z,14.70
2018-02-10T14:05:22.082Z,14.40
2018-02-10T14:07:24.783Z,15.00
2018-02-10T14:09:27.486Z,14.50
2018-02-10T14:11:30.130Z,14.93
2018-02-10T14:13:32.777Z,14.13
2018-02-10T14:15:35.657Z,13.07
2018-02-10T14:17:38.312Z,12.97
2018-02-10T14:19:41.023Z,11.50
2018-02-10T14:21:43.691Z,12.53
2018-02-10T14:23:46.349Z,12.83
2018-02-10T14:25:49.004Z,11.03
2018-02-10T14:27:51.696Z,11.60
2018-02-10T14:29:54.358Z,10.10
2018-02-10T14:31:57.000Z,10.03
2018-02-10T14:33:59.665Z,10.20
2018-02-10T14:36:02.322Z,10.50
2018-02-10T14:38:04.969Z,12.17
2018-02-10T14:40:07.687Z,12.70
2018-02-10T14:42:10.323Z,14.93
2018-02-10T14:44:12.977Z,13.33
2018-02-10T14:46:16.694Z,20.50
2018-02-10T14:48:19.360Z,16.47
2018-02-10T14:50:22.037Z,23.37
2018-02-10T14:52:24.721Z,14.10
2018-02-10T14:54:27.389Z,12.17
2018-02-10T14:56:30.048Z,13.10
2018-02-10T14:58:33.495Z,13.43
2018-02-10T15:00:36.987Z,14.10
2018-02-10T15:02:39.643Z,12.67
2018-02-10T15:04:42.333Z,13.10
2018-02-10T15:06:44.976Z,13.67
2018-02-10T15:08:48.377Z,12.50
2018-02-10T15:10:51.114Z,11.90
2018-02-10T15:12:53.858Z,11.63
2018-02-10T15:14:56.556Z,12.00
2018-02-10T15:16:59.246Z,12.60
2018-02-10T15:19:01.966Z,12.50
2018-02-10T15:21:04.930Z,12.70
2018-02-10T15:23:08.634Z,11.80
2018-02-10T15:25:12.294Z,13.00
2018-02-10T15:27:14.991Z,13.27
2018-02-10T15:29:19.122Z,13.00
2018-02-10T15:31:26.338Z,13.63
2018-02-10T15:33:41.022Z,13.20
2018-02-10T15:35:43.702Z,14.27
2018-02-10T15:37:46.594Z,14.93
2018-02-10T15:39:49.322Z,14.47
2018-02-10T15:41:52.007Z,14.60
2018-02-10T15:43:54.770Z,14.50
2018-02-10T15:45:57.427Z,17.03
2018-02-10T15:48:00.851Z,14.00
2018-02-10T15:50:04.727Z,14.80
2018-02-10T15:52:08.151Z,14.00
2018-02-10T15:54:10.923Z,13.40
2018-02-10T15:56:13.566Z,13.03
2018-02-10T15:58:17.038Z,12.80
2018-02-10T16:00:19.676Z,12.30
2018-02-10T16:02:22.422Z,12.07
2018-02-10T16:04:25.927Z,10.30
2018-02-10T16:06:28.564Z,11.37
2018-02-10T16:08:31.263Z,10.33
2018-02-10T16:10:34.702Z,11.03
2018-02-10T16:12:37.337Z,11.80
2018-02-10T16:14:40.180Z,10.93
2018-02-10T16:16:42.849Z,10.40
2018-02-10T16:18:45.517Z,11.87
2018-02-10T16:20:48.198Z,11.90
2018-02-10T16:22:50.987Z,10.67
2018-02-10T16:24:53.674Z,12.20
2018-02-10T16:26:56.330Z,15.40
2018-02-10T16:28:59.002Z,14.80
2018-02-10T16:31:01.747Z,13.47
2018-02-10T16:33:04.661Z,13.67
2018-02-10T16:35:08.156Z,12.10
2018-02-10T16:37:10.851Z,11.90
2018-02-10T16:39:13.502Z,12.10
2018-02-10T16:41:16.863Z,12.73
2018-02-10T16:43:20.527Z,11.20
2018-02-10T16:45:23.252Z,13.20
2018-02-10T16:47:25.936Z,12.03
2018-02-10T16:49:28.567Z,10.47
2018-02-10T16:51:32.052Z,12.27
2018-02-10T16:53:34.711Z,13.93
2018-02-10T16:55:37.381Z,11.00
2018-02-10T16:57:40.022Z,11.80
2018-02-10T16:59:42.688Z,10.23
2018-02-10T17:01:45.412Z,10.80
2018-02-10T17:03:48.858Z,10.50
2018-02-10T17:05:51.547Z,10.80
2018-02-10T17:07:54.198Z,9.80
2018-02-10T17:09:57.614Z,9.60
2018-02-10T17:12:00.296Z,10.20
2018-02-10T17:14:02.956Z,10.80
2018-02-10T17:16:05.654Z,10.37
2018-02-10T17:18:08.334Z,11.00
2018-02-10T17:20:10.991Z,10.57
2018-02-10T17:22:13.640Z,11.27
2018-02-10T17:24:17.060Z,10.73
2018-02-10T17:26:19.752Z,11.00
2018-02-10T17:28:22.466Z,11.00
2018-02-10T17:30:25.158Z,11.00
2018-02-10T17:32:27.886Z,10.80
2018-02-10T17:34:30.560Z,9.97
2018-02-10T17:36:33.252Z,9.60
2018-02-10T17:38:35.919Z,10.27
2018-02-10T17:40:38.719Z,12.43
2018-02-10T17:42:41.356Z,9.70
2018-02-10T17:44:44.040Z,10.70
2018-02-10T17:46:46.712Z,9.87
2018-02-10T17:48:49.414Z,10.83
2018-02-10T17:50:52.248Z,12.27
2018-02-10T17:52:54.922Z,11.33
2018-02-10T17:54:58.324Z,10.57
2018-02-10T17:57:00.982Z,12.13
2018-02-10T17:59:04.435Z,10.20
2018-02-10T18:01:07.181Z,9.53
2018-02-10T18:03:10.200Z,11.50
2018-02-10T18:05:13.448Z,10.37
2018-02-10T18:07:16.193Z,11.30
2018-02-10T18:09:18.939Z,10.40
2018-02-10T18:11:21.630Z,9.87
2018-02-10T18:13:24.287Z,10.23
2018-02-10T18:15:26.940Z,10.27
2018-02-10T18:17:29.726Z,9.83
2018-02-10T18:19:32.374Z,10.23
2018-02-10T18:21:36.548Z,9.73
2018-02-10T18:23:39.236Z,9.77
2018-02-10T18:25:41.890Z,9.77
2018-02-10T18:27:45.338Z,9.40
2018-02-10T18:29:47.993Z,9.63
2018-02-10T18:31:51.396Z,10.20
2018-02-10T18:33:54.879Z,9.97
2018-02-10T18:35:58.315Z,10.00
2018-02-10T18:38:02.008Z,10.10
2018-02-10T18:40:04.890Z,10.87
2018-02-10T18:42:07.544Z,11.10
2018-02-10T18:44:10.983Z,10.23
2018-02-10T18:46:13.619Z,10.70
2018-02-10T18:48:17.142Z,9.20
2018-02-10T18:50:19.789Z,9.13
2018-02-10T18:52:23.346Z,8.77
2018-02-10T18:54:26.095Z,7.67
2018-02-10T18:56:28.966Z,8.23
2018-02-10T18:58:31.850Z,8.30
2018-02-10T19:00:34.736Z,8.67
2018-02-10T19:02:37.424Z,8.37
2018-02-10T19:04:40.107Z,8.10
2018-02-10T19:06:42.806Z,8.10
2018-02-10T19:08:45.453Z,6.73
2018-02-10T19:10:48.103Z,7.80
2018-02-10T19:12:50.798Z,7.47
2018-02-10T19:14:53.454Z,8.03
2018-02-10T19:16:56.102Z,7.47
2018-02-10T19:18:59.628Z,6.60
2018-02-10T19:21:02.759Z,6.77
2018-02-10T19:23:05.413Z,6.90
2018-02-10T19:25:08.875Z,6.70
2018-02-10T19:27:11.545Z,6.83
2018-02-10T19:29:14.180Z,7.60
2018-02-10T19:31:16.867Z,6.47
2018-02-10T19:33:19.539Z,6.30
2018-02-10T19:35:22.202Z,7.20
2018-02-10T19:37:24.902Z,7.17
2018-02-10T19:39:28.418Z,7.30
2018-02-10T19:41:31.831Z,7.67
2018-02-10T19:43:34.511Z,7.20
2018-02-10T19:45:37.156Z,7.20
2018-02-10T19:47:40.586Z,7.63
2018-02-10T19:49:43.280Z,7.10
2018-02-10T19:51:47.062Z,7.20
2018-02-10T19:53:49.718Z,7.00
2018-02-10T19:55:53.196Z,5.83
2018-02-10T19:57:56.633Z,6.93
2018-02-10T19:59:59.319Z,6.77
2018-02-10T20:02:02.097Z,7.10
2018-02-10T20:04:04.747Z,8.10
2018-02-10T20:06:07.384Z,7.10
2018-02-10T20:08:10.040Z,7.30
2018-02-10T20:10:12.718Z,7.73
2018-02-10T20:12:15.366Z,8.53
2018-02-10T20:14:18.143Z,7.70
2018-02-10T20:16:20.792Z,7.40
2018-02-10T20:18:23.461Z,5.70
2018-02-10T20:20:27.080Z,6.73
2018-02-10T20:22:29.790Z,5.53
2018-02-10T20:24:32.474Z,5.40
2018-02-10T20:26:35.162Z,5.10
2018-02-10T20:28:37.813Z,4.47
2018-02-10T20:30:40.643Z,5.30
2018-02-10T20:32:44.099Z,4.90
2018-02-10T20:34:46.883Z,5.30
2018-02-10T20:36:50.765Z,4.80
2018-02-10T20:38:53.636Z,5.97
2018-02-10T20:40:56.291Z,5.00
2018-02-10T20:42:59.383Z,4.40
2018-02-10T20:45:02.072Z,3.93
2018-02-10T20:47:04.850Z,4.20
2018-02-10T20:49:08.737Z,4.40
2018-02-10T20:51:13.356Z,4.57
2018-02-10T20:53:16.136Z,3.63
2018-02-10T20:55:19.164Z,4.40
2018-02-10T20:57:21.907Z,4.60
2018-02-10T20:59:24.815Z,4.00
2018-02-10T21:01:28.203Z,4.13
2018-02-10T21:03:31.076Z,4.20
2018-02-10T21:05:34.614Z,3.93
2018-02-10T21:07:37.452Z,3.70
2018-02-10T21:09:41.080Z,3.70
2018-02-10T21:11:43.788Z,3.60
2018-02-10T21:13:47.223Z,3.70
2018-02-10T21:15:50.664Z,3.90
2018-02-10T21:17:53.360Z,3.90
2018-02-10T21:19:56.037Z,3.83
2018-02-10T21:21:59.455Z,3.80
2018-02-10T21:24:02.101Z,4.37
2018-02-10T21:26:05.662Z,3.80
2018-02-10T21:28:08.722Z,3.77
2018-02-10T21:30:11.429Z,3.77
2018-02-10T21:32:14.117Z,3.33
2018-02-10T21:34:16.758Z,3.93
2018-02-10T21:36:19.431Z,3.60
2018-02-10T21:38:22.128Z,4.10
2018-02-10T21:40:24.948Z,3.97
2018-02-10T21:42:28.372Z,4.63
2018-02-10T21:44:31.060Z,3.33
2018-02-10T21:46:34.832Z,4.07
2018-02-10T21:48:37.563Z,5.23
2018-02-10T21:50:40.250Z,3.77
2018-02-10T21:52:42.954Z,3.17
2018-02-10T21:54:45.702Z,3.13
2018-02-10T21:56:49.372Z,3.53
2018-02-10T21:58:52.021Z,3.70
2018-02-10T22:00:54.664Z,2.87
2018-02-10T22:02:58.111Z,3.10
2018-02-10T22:05:00.761Z,3.13
2018-02-10T22:07:03.426Z,2.70
2018-02-10T22:09:06.840Z,2.90
2018-02-10T22:11:09.526Z,3.97
2018-02-10T22:13:12.198Z,3.20
2018-02-10T22:15:14.880Z,3.50
2018-02-10T22:17:17.721Z,3.33
2018-02-10T22:19:21.129Z,3.37
2018-02-10T22:21:23.801Z,3.70
2018-02-10T22:23:26.456Z,3.23
2018-02-10T22:25:29.852Z,3.30
2018-02-10T22:27:34.440Z,3.43
2018-02-10T22:29:37.976Z,3.37
2018-02-10T22:31:40.751Z,3.70
2018-02-10T22:33:44.199Z,2.83
2018-02-10T22:35:46.861Z,3.33
2018-02-10T22:37:49.500Z,3.57
2018-02-10T22:39:52.942Z,3.50
2018-02-10T22:41:55.592Z,3.40
2018-02-10T22:43:58.261Z,3.23
2018-02-10T22:46:00.987Z,3.23
2018-02-10T22:48:03.685Z,3.40
2018-02-10T22:50:06.316Z,3.80
2018-02-10T22:52:08.993Z,3.30
2018-02-10T22:54:11.875Z,3.20
2018-02-10T22:56:14.542Z,3.60
2018-02-10T22:58:17.182Z,4.07
2018-02-10T23:00:20.838Z,3.70
2018-02-10T23:02:24.307Z,3.63
2018-02-10T23:04:26.991Z,3.47
2018-02-10T23:06:29.639Z,3.30
2018-02-10T23:08:32.321Z,3.47
2018-02-10T23:10:35.978Z,3.70
2018-02-10T23:12:38.626Z,3.53
2018-02-10T23:14:41.327Z,3.40
2018-02-10T23:16:43.977Z,3.40
2018-02-10T23:18:46.906Z,3.47
2018-02-10T23:20:50.332Z,3.20
2018-02-10T23:22:52.972Z,3.47
2018-02-10T23:24:56.369Z,3.60
2018-02-10T23:26:59.817Z,3.03
2018-02-10T23:29:02.556Z,3.40
2018-02-10T23:31:05.349Z,3.37
2018-02-10T23:33:08.038Z,3.50
2018-02-10T23:35:10.676Z,3.00
2018-02-10T23:37:14.077Z,2.93
2018-02-10T23:39:17.500Z,3.60
2018-02-10T23:41:20.179Z,3.87
2018-02-10T23:43:22.811Z,3.53
2018-02-10T23:45:26.256Z,3.93
2018-02-10T23:47:28.898Z,4.03
2018-02-10T23:49:31.547Z,3.90
2018-02-10T23:51:34.218Z,3.80
2018-02-10T23:53:36.882Z,4.13
2018-02-10T23:55:39.521Z,4.00
2018-02-10T23:57:42.259Z,4.80
2018-02-10T23:59:45.669Z,3.87
